No particular awareness of the weather is required.    There are no Weather-warnings


Meteo18 Weather Cam more information Meteo18 Weather Cam


Thunder radar more information blitzortung!


Rain radar more information rain snow radar


Visit our other weather sites:

Template documentation
and downloads

And another site



Weather Underground History page Text

Daily Summary for November 19, 2017 Units:  Both    English   Metric
« Previous Day
Next Day »
Daily Weekly Monthly Yearly Custom
  High: Low: Average:
Temperature: TemperatureC °F /  -17.8 °C 2.4 °F /  -16.4 °C 5.5 °F /  -14.7 °C
Dew Point: DewpointC °F /  -17.8 °C 1.8 °F /  -16.8 °C 4.6 °F /  -15.2 °C
Humidity: Humidity % 88 % 93 %
Wind Speed: WindSpeedKMH mph /  0 km/h - 1.8 mph /  2.9 km/h
Wind Gust: WindSpeedGustKMH mph /  0 km/h - -
Wind:- - WSW
Pressure: PressurehPa in /  0 hPa 1023.6 in /  34659.1 hPa -
Precipitation: 0.0 in /  0 mm    
Historical Graphs
 
 
Tabular Data for November 19, 2017
Time Temperature Dew Point Pressure Wind Wind Speed Wind Gust Humidity Rainfall Rate (Hourly)
TemperatureC °F /  -17.8 °C DewpointC °F /  -17.8 °C PressurehPa in /  0 hPa Calm     Humidity % HourlyPrecipMM in /  0 mm
00:02 4.7 °F /  -15.2 °C 3.4 °F /  -15.9 °C 1024.6 in /  34693 hPa Calm   1.6 mph /  2.6 km/h 91 % 0.0 in /  0 mm
00:07 4.7 °F /  -15.2 °C 3.4 °F /  -15.9 °C 1024.6 in /  34693 hPa Calm   1.6 mph /  2.6 km/h 91 % 0.0 in /  0 mm
00:12 4.7 °F /  -15.2 °C 3.4 °F /  -15.9 °C 1024.6 in /  34693 hPa WSW 1.6 mph /  2.6 km/h 1.6 mph /  2.6 km/h 91 % 0.0 in /  0 mm
00:17 4.7 °F /  -15.2 °C 3.5 °F /  -15.8 °C 1024.6 in /  34693 hPa WSW 1.6 mph /  2.6 km/h 1.6 mph /  2.6 km/h 92 % 0.0 in /  0 mm
00:22 4.8 °F /  -15.1 °C 3.6 °F /  -15.8 °C 1024.6 in /  34693 hPa WSW 1.6 mph /  2.6 km/h 1.6 mph /  2.6 km/h 92 % 0.0 in /  0 mm
00:32 4.9 °F /  -15.1 °C 3.6 °F /  -15.8 °C 1024.3 in /  34682.8 hPa Calm   3.2 mph /  5.1 km/h 91 % 0.0 in /  0 mm
00:37 4.8 °F /  -15.1 °C 3.5 °F /  -15.8 °C 1024.3 in /  34682.8 hPa SSE 1.6 mph /  2.6 km/h 6.4 mph /  10.3 km/h 91 % 0.0 in /  0 mm
00:42 4.8 °F /  -15.1 °C 3.5 °F /  -15.8 °C 1024.3 in /  34682.8 hPa South 1.6 mph /  2.6 km/h 6.4 mph /  10.3 km/h 91 % 0.0 in /  0 mm
00:52 4.9 °F /  -15.1 °C 3.9 °F /  -15.6 °C 1024.3 in /  34682.8 hPa SW 4.8 mph /  7.7 km/h 6.4 mph /  10.3 km/h 93 % 0.0 in /  0 mm
00:57 5.3 °F /  -14.8 °C 4.0 °F /  -15.6 °C 1024.3 in /  34682.8 hPa WNW 6.4 mph /  10.3 km/h 11.3 mph /  18.2 km/h 91 % 0.0 in /  0 mm
01:02 5.6 °F /  -14.7 °C 3.9 °F /  -15.6 °C 1024.3 in /  34682.8 hPa West 8.0 mph /  12.9 km/h 11.3 mph /  18.2 km/h 89 % 0.0 in /  0 mm
01:07 5.6 °F /  -14.7 °C 3.9 °F /  -15.6 °C 1024.3 in /  34682.8 hPa West 6.4 mph /  10.3 km/h 14.5 mph /  23.3 km/h 89 % 0.0 in /  0 mm
01:12 5.7 °F /  -14.6 °C 3.9 °F /  -15.6 °C 1024.3 in /  34682.8 hPa West 3.2 mph /  5.1 km/h 14.5 mph /  23.3 km/h 88 % 0.0 in /  0 mm
01:17 5.6 °F /  -14.7 °C 3.8 °F /  -15.7 °C 1023.9 in /  34669.3 hPa SW 4.8 mph /  7.7 km/h 14.5 mph /  23.3 km/h 88 % 0.0 in /  0 mm
01:22 5.6 °F /  -14.7 °C 3.9 °F /  -15.6 °C 1023.9 in /  34669.3 hPa SW 3.2 mph /  5.1 km/h 9.7 mph /  15.6 km/h 89 % 0.0 in /  0 mm
01:27 5.5 °F /  -14.7 °C 3.8 °F /  -15.7 °C 1024.3 in /  34682.8 hPa West 4.8 mph /  7.7 km/h 8.0 mph /  12.9 km/h 89 % 0.0 in /  0 mm
01:32 5.5 °F /  -14.7 °C 3.8 °F /  -15.7 °C 1024.3 in /  34682.8 hPa WNW 4.8 mph /  7.7 km/h 8.0 mph /  12.9 km/h 89 % 0.0 in /  0 mm
01:37 5.4 °F /  -14.8 °C 3.7 °F /  -15.7 °C 1024.3 in /  34682.8 hPa WSW 4.8 mph /  7.7 km/h 14.5 mph /  23.3 km/h 89 % 0.0 in /  0 mm
01:42 5.4 °F /  -14.8 °C 3.7 °F /  -15.7 °C 1024.3 in /  34682.8 hPa SW 1.6 mph /  2.6 km/h 14.5 mph /  23.3 km/h 89 % 0.0 in /  0 mm
01:47 5.5 °F /  -14.7 °C 3.8 °F /  -15.7 °C 1024.3 in /  34682.8 hPa WNW 3.2 mph /  5.1 km/h 14.5 mph /  23.3 km/h 89 % 0.0 in /  0 mm
01:52 5.5 °F /  -14.7 °C 3.8 °F /  -15.7 °C 1023.9 in /  34669.3 hPa WNW 6.4 mph /  10.3 km/h 14.5 mph /  23.3 km/h 89 % 0.0 in /  0 mm
02:02 5.4 °F /  -14.8 °C 3.7 °F /  -15.7 °C 1023.9 in /  34669.3 hPa WSW 3.2 mph /  5.1 km/h 11.3 mph /  18.2 km/h 89 % 0.0 in /  0 mm
02:07 5.4 °F /  -14.8 °C 3.7 °F /  -15.7 °C 1023.9 in /  34669.3 hPa Calm   8.0 mph /  12.9 km/h 89 % 0.0 in /  0 mm
02:12 5.4 °F /  -14.8 °C 3.7 °F /  -15.7 °C 1023.9 in /  34669.3 hPa West 1.6 mph /  2.6 km/h 4.8 mph /  7.7 km/h 89 % 0.0 in /  0 mm
02:17 5.4 °F /  -14.8 °C 3.7 °F /  -15.7 °C 1023.9 in /  34669.3 hPa Calm   4.8 mph /  7.7 km/h 89 % 0.0 in /  0 mm
02:22 5.4 °F /  -14.8 °C 3.9 °F /  -15.6 °C 1023.9 in /  34669.3 hPa WSW 1.6 mph /  2.6 km/h 3.2 mph /  5.1 km/h 90 % 0.0 in /  0 mm
02:32 5.4 °F /  -14.8 °C 3.7 °F /  -15.7 °C 1023.9 in /  34669.3 hPa Calm   1.6 mph /  2.6 km/h 89 % 0.0 in /  0 mm
02:37 5.4 °F /  -14.8 °C 3.7 °F /  -15.7 °C 1024.3 in /  34682.8 hPa Calm   1.6 mph /  2.6 km/h 89 % 0.0 in /  0 mm
02:42 5.4 °F /  -14.8 °C 3.9 °F /  -15.6 °C 1023.9 in /  34669.3 hPa Calm   3.2 mph /  5.1 km/h 90 % 0.0 in /  0 mm
02:47 5.6 °F /  -14.7 °C 4.1 °F /  -15.5 °C 1023.9 in /  34669.3 hPa Calm   3.2 mph /  5.1 km/h 90 % 0.0 in /  0 mm
02:52 5.1 °F /  -14.9 °C 3.6 °F /  -15.8 °C 1023.6 in /  34659.1 hPa WSW 6.4 mph /  10.3 km/h 9.7 mph /  15.6 km/h 90 % 0.0 in /  0 mm
02:57 5.7 °F /  -14.6 °C 4.2 °F /  -15.4 °C 1023.6 in /  34659.1 hPa WSW 4.8 mph /  7.7 km/h 9.7 mph /  15.6 km/h 90 % 0.0 in /  0 mm
03:02 5.7 °F /  -14.6 °C 4.2 °F /  -15.4 °C 1023.6 in /  34659.1 hPa WSW 4.8 mph /  7.7 km/h 8.0 mph /  12.9 km/h 90 % 0.0 in /  0 mm
03:07 5.7 °F /  -14.6 °C 4.2 °F /  -15.4 °C 1023.6 in /  34659.1 hPa WSW 4.8 mph /  7.7 km/h 6.4 mph /  10.3 km/h 90 % 0.0 in /  0 mm
09:37 4.9 °F /  -15.1 °C 4.3 °F /  -15.4 °C 1023.6 in /  34659.1 hPa West 4.8 mph /  7.7 km/h 12.9 mph /  20.8 km/h 96 % 0.0 in /  0 mm
09:42 4.9 °F /  -15.1 °C 4.3 °F /  -15.4 °C 1023.9 in /  34669.3 hPa West 8.0 mph /  12.9 km/h 12.9 mph /  20.8 km/h 96 % 0.0 in /  0 mm
09:47 4.9 °F /  -15.1 °C 4.3 °F /  -15.4 °C 1023.9 in /  34669.3 hPa West 4.8 mph /  7.7 km/h 12.9 mph /  20.8 km/h 96 % 0.0 in /  0 mm
09:52 4.9 °F /  -15.1 °C 4.3 °F /  -15.4 °C 1023.9 in /  34669.3 hPa West 4.8 mph /  7.7 km/h 14.5 mph /  23.3 km/h 96 % 0.0 in /  0 mm
09:57 4.9 °F /  -15.1 °C 4.3 °F /  -15.4 °C 1023.9 in /  34669.3 hPa WSW 8.0 mph /  12.9 km/h 14.5 mph /  23.3 km/h 96 % 0.0 in /  0 mm
10:02 5.0 °F /  -15 °C 4.4 °F /  -15.3 °C 1023.9 in /  34669.3 hPa WNW 6.4 mph /  10.3 km/h 14.5 mph /  23.3 km/h 96 % 0.0 in /  0 mm
10:12 5.1 °F /  -14.9 °C 4.5 °F /  -15.3 °C 1024.3 in /  34682.8 hPa West 1.6 mph /  2.6 km/h 12.9 mph /  20.8 km/h 96 % 0.0 in /  0 mm
10:17 5.0 °F /  -15 °C 4.4 °F /  -15.3 °C 1024.3 in /  34682.8 hPa WNW 6.4 mph /  10.3 km/h 12.9 mph /  20.8 km/h 96 % 0.0 in /  0 mm
10:22 5.1 °F /  -14.9 °C 4.5 °F /  -15.3 °C 1024.3 in /  34682.8 hPa West 3.2 mph /  5.1 km/h 9.7 mph /  15.6 km/h 96 % 0.0 in /  0 mm
10:32 5.1 °F /  -14.9 °C 4.5 °F /  -15.3 °C 1024.3 in /  34682.8 hPa West 6.4 mph /  10.3 km/h 9.7 mph /  15.6 km/h 96 % 0.0 in /  0 mm
10:52 5.1 °F /  -14.9 °C 4.5 °F /  -15.3 °C 1024.3 in /  34682.8 hPa WNW 9.7 mph /  15.6 km/h 12.9 mph /  20.8 km/h 96 % 0.0 in /  0 mm
11:02 5.2 °F /  -14.9 °C 4.6 °F /  -15.2 °C 1024.6 in /  34693 hPa WNW 6.4 mph /  10.3 km/h 12.9 mph /  20.8 km/h 96 % 0.0 in /  0 mm
11:07 5.2 °F /  -14.9 °C 4.6 °F /  -15.2 °C 1024.6 in /  34693 hPa West 8.0 mph /  12.9 km/h 12.9 mph /  20.8 km/h 96 % 0.0 in /  0 mm
11:12 5.2 °F /  -14.9 °C 4.6 °F /  -15.2 °C 1024.3 in /  34682.8 hPa NW 8.0 mph /  12.9 km/h 11.3 mph /  18.2 km/h 96 % 0.0 in /  0 mm
11:17 5.2 °F /  -14.9 °C 4.6 °F /  -15.2 °C 1024.6 in /  34693 hPa WNW 4.8 mph /  7.7 km/h 9.7 mph /  15.6 km/h 96 % 0.0 in /  0 mm
11:37 5.3 °F /  -14.8 °C 4.7 °F /  -15.2 °C 1024.6 in /  34693 hPa West 3.2 mph /  5.1 km/h 6.4 mph /  10.3 km/h 96 % 0.0 in /  0 mm
11:42 5.4 °F /  -14.8 °C 4.8 °F /  -15.1 °C 1024.3 in /  34682.8 hPa WSW 1.6 mph /  2.6 km/h 6.4 mph /  10.3 km/h 96 % 0.0 in /  0 mm
11:52 5.4 °F /  -14.8 °C 4.8 °F /  -15.1 °C 1024.3 in /  34682.8 hPa Calm   6.4 mph /  10.3 km/h 96 % 0.0 in /  0 mm
12:02 5.6 °F /  -14.7 °C 5.0 °F /  -15 °C 1024.3 in /  34682.8 hPa SSW 1.6 mph /  2.6 km/h 3.2 mph /  5.1 km/h 96 % 0.0 in /  0 mm
12:12 5.7 °F /  -14.6 °C 5.1 °F /  -14.9 °C 1023.9 in /  34669.3 hPa West 4.8 mph /  7.7 km/h 4.8 mph /  7.7 km/h 96 % 0.0 in /  0 mm
12:22 5.9 °F /  -14.5 °C 5.3 °F /  -14.8 °C 1024.3 in /  34682.8 hPa West 3.2 mph /  5.1 km/h 6.4 mph /  10.3 km/h 96 % 0.0 in /  0 mm
12:27 5.9 °F /  -14.5 °C 5.2 °F /  -14.9 °C 1024.3 in /  34682.8 hPa WNW 3.2 mph /  5.1 km/h 6.4 mph /  10.3 km/h 95 % 0.0 in /  0 mm
12:32 6.0 °F /  -14.4 °C 5.3 °F /  -14.8 °C 1024.3 in /  34682.8 hPa Calm   6.4 mph /  10.3 km/h 95 % 0.0 in /  0 mm
12:37 6.1 °F /  -14.4 °C 5.5 °F /  -14.7 °C 1024.3 in /  34682.8 hPa Calm   6.4 mph /  10.3 km/h 96 % 0.0 in /  0 mm
12:42 6.2 °F /  -14.3 °C 5.5 °F /  -14.7 °C 1024.3 in /  34682.8 hPa WNW 1.6 mph /  2.6 km/h 4.8 mph /  7.7 km/h 95 % 0.0 in /  0 mm
12:47 6.2 °F /  -14.3 °C 5.5 °F /  -14.7 °C 1024.3 in /  34682.8 hPa Calm   4.8 mph /  7.7 km/h 95 % 0.0 in /  0 mm
13:02 6.3 °F /  -14.3 °C 5.6 °F /  -14.7 °C 1024.3 in /  34682.8 hPa Calm   6.4 mph /  10.3 km/h 95 % 0.0 in /  0 mm
13:12 6.4 °F /  -14.2 °C 5.7 °F /  -14.6 °C 1024.3 in /  34682.8 hPa Calm   8.0 mph /  12.9 km/h 95 % 0.0 in /  0 mm
13:17 6.6 °F /  -14.1 °C 5.9 °F /  -14.5 °C 1024.3 in /  34682.8 hPa Calm   6.4 mph /  10.3 km/h 95 % 0.0 in /  0 mm
13:22 6.6 °F /  -14.1 °C 5.9 °F /  -14.5 °C 1024.3 in /  34682.8 hPa Calm   4.8 mph /  7.7 km/h 95 % 0.0 in /  0 mm
13:27 6.6 °F /  -14.1 °C 5.7 °F /  -14.6 °C 1024.3 in /  34682.8 hPa Calm   3.2 mph /  5.1 km/h 94 % 0.0 in /  0 mm
13:32 6.7 °F /  -14.1 °C 5.8 °F /  -14.6 °C 1024.3 in /  34682.8 hPa Calm   3.2 mph /  5.1 km/h 94 % 0.0 in /  0 mm
13:42 6.8 °F /  -14 °C 5.9 °F /  -14.5 °C 1024.3 in /  34682.8 hPa Calm   1.6 mph /  2.6 km/h 94 % 0.0 in /  0 mm
13:52 6.7 °F /  -14.1 °C 5.8 °F /  -14.6 °C 1024.3 in /  34682.8 hPa NW 3.2 mph /  5.1 km/h 4.8 mph /  7.7 km/h 94 % 0.0 in /  0 mm
13:57 6.7 °F /  -14.1 °C 5.8 °F /  -14.6 °C 1024.3 in /  34682.8 hPa NW 4.8 mph /  7.7 km/h 4.8 mph /  7.7 km/h 94 % 0.0 in /  0 mm
14:02 6.7 °F /  -14.1 °C 5.8 °F /  -14.6 °C 1024.3 in /  34682.8 hPa NNW 3.2 mph /  5.1 km/h 6.4 mph /  10.3 km/h 94 % 0.0 in /  0 mm
14:12 6.8 °F /  -14 °C 5.9 °F /  -14.5 °C 1024.3 in /  34682.8 hPa NW 3.2 mph /  5.1 km/h 6.4 mph /  10.3 km/h 94 % 0.0 in /  0 mm
14:17 6.8 °F /  -14 °C 5.9 °F /  -14.5 °C 1024.3 in /  34682.8 hPa North 3.2 mph /  5.1 km/h 4.8 mph /  7.7 km/h 94 % 0.0 in /  0 mm
14:22 6.7 °F /  -14.1 °C 6.0 °F /  -14.4 °C 1024.3 in /  34682.8 hPa NW 1.6 mph /  2.6 km/h 6.4 mph /  10.3 km/h 95 % 0.0 in /  0 mm
14:27 6.8 °F /  -14 °C 6.1 °F /  -14.4 °C 1024.3 in /  34682.8 hPa NW 1.6 mph /  2.6 km/h 6.4 mph /  10.3 km/h 95 % 0.0 in /  0 mm
14:32 6.8 °F /  -14 °C 6.1 °F /  -14.4 °C 1024.3 in /  34682.8 hPa WNW 1.6 mph /  2.6 km/h 4.8 mph /  7.7 km/h 95 % 0.0 in /  0 mm
14:37 6.8 °F /  -14 °C 6.1 °F /  -14.4 °C 1024.3 in /  34682.8 hPa Calm   4.8 mph /  7.7 km/h 95 % 0.0 in /  0 mm
14:42 6.8 °F /  -14 °C 6.1 °F /  -14.4 °C 1024.3 in /  34682.8 hPa Calm   4.8 mph /  7.7 km/h 95 % 0.0 in /  0 mm
14:47 6.9 °F /  -13.9 °C 6.2 °F /  -14.3 °C 1024.3 in /  34682.8 hPa Calm   3.2 mph /  5.1 km/h 95 % 0.0 in /  0 mm
14:57 7.0 °F /  -13.9 °C 6.3 °F /  -14.3 °C 1024.3 in /  34682.8 hPa NW 3.2 mph /  5.1 km/h 3.2 mph /  5.1 km/h 95 % 0.0 in /  0 mm
15:02 7.0 °F /  -13.9 °C 6.1 °F /  -14.4 °C 1024.3 in /  34682.8 hPa NNW 1.6 mph /  2.6 km/h 4.8 mph /  7.7 km/h 94 % 0.0 in /  0 mm
15:12 7.0 °F /  -13.9 °C 6.1 °F /  -14.4 °C 1024.3 in /  34682.8 hPa North 3.2 mph /  5.1 km/h 6.4 mph /  10.3 km/h 94 % 0.0 in /  0 mm
15:17 7.0 °F /  -13.9 °C 6.1 °F /  -14.4 °C 1024.3 in /  34682.8 hPa NNE 3.2 mph /  5.1 km/h 6.4 mph /  10.3 km/h 94 % 0.0 in /  0 mm
15:27 6.9 °F /  -13.9 °C 6.0 °F /  -14.4 °C 1024.3 in /  34682.8 hPa NNW 4.8 mph /  7.7 km/h 9.7 mph /  15.6 km/h 94 % 0.0 in /  0 mm
15:32 6.9 °F /  -13.9 °C 6.0 °F /  -14.4 °C 1024.3 in /  34682.8 hPa North 3.2 mph /  5.1 km/h 6.4 mph /  10.3 km/h 94 % 0.0 in /  0 mm
15:37 6.9 °F /  -13.9 °C 6.0 °F /  -14.4 °C 1024.3 in /  34682.8 hPa NE 8.0 mph /  12.9 km/h 8.0 mph /  12.9 km/h 94 % 0.0 in /  0 mm
15:47 6.8 °F /  -14 °C 5.9 °F /  -14.5 °C 1024.3 in /  34682.8 hPa Calm   11.3 mph /  18.2 km/h 94 % 0.0 in /  0 mm
15:52 6.8 °F /  -14 °C 5.9 °F /  -14.5 °C 1024.6 in /  34693 hPa NE 1.6 mph /  2.6 km/h 11.3 mph /  18.2 km/h 94 % 0.0 in /  0 mm
15:57 6.8 °F /  -14 °C 5.9 °F /  -14.5 °C 1024.6 in /  34693 hPa NNW 1.6 mph /  2.6 km/h 9.7 mph /  15.6 km/h 94 % 0.0 in /  0 mm
16:02 6.7 °F /  -14.1 °C 5.8 °F /  -14.6 °C 1024.6 in /  34693 hPa North 3.2 mph /  5.1 km/h 3.2 mph /  5.1 km/h 94 % 0.0 in /  0 mm
16:07 6.7 °F /  -14.1 °C 5.8 °F /  -14.6 °C 1024.6 in /  34693 hPa Calm   4.8 mph /  7.7 km/h 94 % 0.0 in /  0 mm
16:17 6.7 °F /  -14.1 °C 5.8 °F /  -14.6 °C 1024.6 in /  34693 hPa NNE 1.6 mph /  2.6 km/h 4.8 mph /  7.7 km/h 94 % 0.0 in /  0 mm
16:27 6.7 °F /  -14.1 °C 5.8 °F /  -14.6 °C 1024.6 in /  34693 hPa Calm   3.2 mph /  5.1 km/h 94 % 0.0 in /  0 mm
16:32 6.7 °F /  -14.1 °C 5.8 °F /  -14.6 °C 1024.6 in /  34693 hPa Calm   1.6 mph /  2.6 km/h 94 % 0.0 in /  0 mm
16:37 6.6 °F /  -14.1 °C 5.5 °F /  -14.7 °C 1024.6 in /  34693 hPa Calm   1.6 mph /  2.6 km/h 93 % 0.0 in /  0 mm
16:42 6.6 °F /  -14.1 °C 5.5 °F /  -14.7 °C 1024.6 in /  34693 hPa WNW 1.6 mph /  2.6 km/h 1.6 mph /  2.6 km/h 93 % 0.0 in /  0 mm
16:47 6.5 °F /  -14.2 °C 5.4 °F /  -14.8 °C 1024.6 in /  34693 hPa Calm   3.2 mph /  5.1 km/h 93 % 0.0 in /  0 mm
16:57 6.4 °F /  -14.2 °C 5.4 °F /  -14.8 °C 1024.9 in /  34703.1 hPa Calm   3.2 mph /  5.1 km/h 93 % 0.0 in /  0 mm
17:02 6.3 °F /  -14.3 °C 5.3 °F /  -14.8 °C 1024.9 in /  34703.1 hPa West 1.6 mph /  2.6 km/h   93 % 0.0 in /  0 mm
17:07 6.3 °F /  -14.3 °C 5.3 °F /  -14.8 °C 1024.9 in /  34703.1 hPa West 1.6 mph /  2.6 km/h 1.6 mph /  2.6 km/h 93 % 0.0 in /  0 mm
17:12 6.2 °F /  -14.3 °C 5.2 °F /  -14.9 °C 1024.9 in /  34703.1 hPa WNW 1.6 mph /  2.6 km/h 4.8 mph /  7.7 km/h 93 % 0.0 in /  0 mm
17:27 6.2 °F /  -14.3 °C 5.2 °F /  -14.9 °C 1024.9 in /  34703.1 hPa West 1.6 mph /  2.6 km/h 4.8 mph /  7.7 km/h 93 % 0.0 in /  0 mm
17:32 6.2 °F /  -14.3 °C 5.2 °F /  -14.9 °C 1024.9 in /  34703.1 hPa Calm   3.2 mph /  5.1 km/h 93 % 0.0 in /  0 mm
17:37 6.1 °F /  -14.4 °C 5.1 °F /  -14.9 °C 1024.9 in /  34703.1 hPa Calm   1.6 mph /  2.6 km/h 93 % 0.0 in /  0 mm
17:52 5.8 °F /  -14.6 °C 4.9 °F /  -15.1 °C 1024.9 in /  34703.1 hPa Calm   1.6 mph /  2.6 km/h 94 % 0.0 in /  0 mm
17:57 5.8 °F /  -14.6 °C 4.9 °F /  -15.1 °C 1024.9 in /  34703.1 hPa Calm   1.6 mph /  2.6 km/h 94 % 0.0 in /  0 mm
18:07 5.6 °F /  -14.7 °C 4.7 °F /  -15.2 °C 1025.3 in /  34716.7 hPa Calm   1.6 mph /  2.6 km/h 94 % 0.0 in /  0 mm
18:12 5.6 °F /  -14.7 °C 4.7 °F /  -15.2 °C 1025.3 in /  34716.7 hPa Calm   1.6 mph /  2.6 km/h 94 % 0.0 in /  0 mm
18:17 5.6 °F /  -14.7 °C 4.7 °F /  -15.2 °C 1025.3 in /  34716.7 hPa Calm   1.6 mph /  2.6 km/h 94 % 0.0 in /  0 mm
18:27 5.4 °F /  -14.8 °C 4.5 °F /  -15.3 °C 1025.3 in /  34716.7 hPa Calm   3.2 mph /  5.1 km/h 94 % 0.0 in /  0 mm
18:42 5.7 °F /  -14.6 °C 5.0 °F /  -15 °C 1025.6 in /  34726.8 hPa Calm   1.6 mph /  2.6 km/h 95 % 0.0 in /  0 mm
18:57 5.6 °F /  -14.7 °C 4.7 °F /  -15.2 °C 1025.6 in /  34726.8 hPa Calm     94 % 0.0 in /  0 mm
19:02 5.7 °F /  -14.6 °C 4.8 °F /  -15.1 °C 1025.6 in /  34726.8 hPa Calm     94 % 0.0 in /  0 mm
19:17 5.6 °F /  -14.7 °C 4.7 °F /  -15.2 °C 1025.6 in /  34726.8 hPa Calm     94 % 0.0 in /  0 mm
19:22 5.6 °F /  -14.7 °C 4.7 °F /  -15.2 °C 1025.6 in /  34726.8 hPa Calm     94 % 0.0 in /  0 mm
19:27 5.6 °F /  -14.7 °C 4.7 °F /  -15.2 °C 1025.6 in /  34726.8 hPa Calm     94 % 0.0 in /  0 mm
19:42 5.4 °F /  -14.8 °C 4.7 °F /  -15.2 °C 1026.0 in /  34740.4 hPa Calm     95 % 0.0 in /  0 mm
19:52 5.4 °F /  -14.8 °C 4.7 °F /  -15.2 °C 1026.0 in /  34740.4 hPa Calm     95 % 0.0 in /  0 mm
20:02 5.3 °F /  -14.8 °C 4.6 °F /  -15.2 °C 1026.0 in /  34740.4 hPa Calm     95 % 0.0 in /  0 mm
20:07 5.3 °F /  -14.8 °C 4.6 °F /  -15.2 °C 1026.0 in /  34740.4 hPa Calm     95 % 0.0 in /  0 mm
20:17 5.3 °F /  -14.8 °C 4.6 °F /  -15.2 °C 1026.0 in /  34740.4 hPa Calm     95 % 0.0 in /  0 mm
20:27 5.3 °F /  -14.8 °C 4.7 °F /  -15.2 °C 1026.3 in /  34750.5 hPa Calm   1.6 mph /  2.6 km/h 96 % 0.0 in /  0 mm
20:32 5.3 °F /  -14.8 °C 4.7 °F /  -15.2 °C 1026.3 in /  34750.5 hPa Calm     96 % 0.0 in /  0 mm
20:37 5.3 °F /  -14.8 °C 4.7 °F /  -15.2 °C 1026.3 in /  34750.5 hPa Calm     96 % 0.0 in /  0 mm
20:47 5.3 °F /  -14.8 °C 4.7 °F /  -15.2 °C 1026.3 in /  34750.5 hPa Calm   1.6 mph /  2.6 km/h 96 % 0.0 in /  0 mm
20:57 5.3 °F /  -14.8 °C 4.7 °F /  -15.2 °C 1026.6 in /  34760.7 hPa Calm   1.6 mph /  2.6 km/h 96 % 0.0 in /  0 mm
21:02 5.2 °F /  -14.9 °C 4.6 °F /  -15.2 °C 1026.6 in /  34760.7 hPa Calm   1.6 mph /  2.6 km/h 96 % 0.0 in /  0 mm
21:07 5.2 °F /  -14.9 °C 4.6 °F /  -15.2 °C 1026.6 in /  34760.7 hPa Calm   1.6 mph /  2.6 km/h 96 % 0.0 in /  0 mm
21:12 5.2 °F /  -14.9 °C 4.6 °F /  -15.2 °C 1026.6 in /  34760.7 hPa Calm   1.6 mph /  2.6 km/h 96 % 0.0 in /  0 mm
21:22 5.1 °F /  -14.9 °C 4.5 °F /  -15.3 °C 1026.6 in /  34760.7 hPa Calm   1.6 mph /  2.6 km/h 96 % 0.0 in /  0 mm
21:32 5.0 °F /  -15 °C 4.4 °F /  -15.3 °C 1026.6 in /  34760.7 hPa Calm   1.6 mph /  2.6 km/h 96 % 0.0 in /  0 mm
21:52 4.9 °F /  -15.1 °C 4.3 °F /  -15.4 °C 1026.6 in /  34760.7 hPa Calm   1.6 mph /  2.6 km/h 96 % 0.0 in /  0 mm
21:57 4.9 °F /  -15.1 °C 4.3 °F /  -15.4 °C 1026.6 in /  34760.7 hPa Calm   1.6 mph /  2.6 km/h 96 % 0.0 in /  0 mm
22:02 4.8 °F /  -15.1 °C 4.2 °F /  -15.4 °C 1026.6 in /  34760.7 hPa Calm   1.6 mph /  2.6 km/h 96 % 0.0 in /  0 mm
22:07 4.8 °F /  -15.1 °C 4.2 °F /  -15.4 °C 1026.6 in /  34760.7 hPa Calm   1.6 mph /  2.6 km/h 96 % 0.0 in /  0 mm
22:17 4.7 °F /  -15.2 °C 4.1 °F /  -15.5 °C 1026.6 in /  34760.7 hPa Calm   1.6 mph /  2.6 km/h 96 % 0.0 in /  0 mm
22:22 4.6 °F /  -15.2 °C 4.0 °F /  -15.6 °C 1026.6 in /  34760.7 hPa SE 1.6 mph /  2.6 km/h 1.6 mph /  2.6 km/h 96 % 0.0 in /  0 mm
22:27 4.4 °F /  -15.3 °C 3.8 °F /  -15.7 °C 1026.6 in /  34760.7 hPa Calm   1.6 mph /  2.6 km/h 96 % 0.0 in /  0 mm
22:32 4.3 °F /  -15.4 °C 3.7 °F /  -15.7 °C 1026.6 in /  34760.7 hPa Calm   1.6 mph /  2.6 km/h 96 % 0.0 in /  0 mm
22:37 4.2 °F /  -15.4 °C 3.6 °F /  -15.8 °C 1026.6 in /  34760.7 hPa Calm   1.6 mph /  2.6 km/h 96 % 0.0 in /  0 mm
22:52 3.7 °F /  -15.7 °C 3.1 °F /  -16.1 °C 1026.6 in /  34760.7 hPa Calm     96 % 0.0 in /  0 mm
22:57 3.5 °F /  -15.8 °C 2.9 °F /  -16.2 °C 1026.6 in /  34760.7 hPa WNW 1.6 mph /  2.6 km/h   96 % 0.0 in /  0 mm
23:02 3.3 °F /  -15.9 °C 2.7 °F /  -16.3 °C 1026.6 in /  34760.7 hPa Calm   1.6 mph /  2.6 km/h 96 % 0.0 in /  0 mm
23:07 3.4 °F /  -15.9 °C 3.0 °F /  -16.1 °C 1026.6 in /  34760.7 hPa Calm   1.6 mph /  2.6 km/h 97 % 0.0 in /  0 mm
23:12 3.6 °F /  -15.8 °C 3.2 °F /  -16 °C 1026.6 in /  34760.7 hPa Calm   1.6 mph /  2.6 km/h 97 % 0.0 in /  0 mm
23:17 3.3 °F /  -15.9 °C 2.7 °F /  -16.3 °C 1026.6 in /  34760.7 hPa Calm   1.6 mph /  2.6 km/h 96 % 0.0 in /  0 mm
23:22 3.0 °F /  -16.1 °C 2.4 °F /  -16.4 °C 1026.6 in /  34760.7 hPa Calm   1.6 mph /  2.6 km/h 96 % 0.0 in /  0 mm
23:32 2.8 °F /  -16.2 °C 2.2 °F /  -16.6 °C 1026.6 in /  34760.7 hPa Calm     96 % 0.0 in /  0 mm
23:37 2.7 °F /  -16.3 °C 2.1 °F /  -16.6 °C 1026.6 in /  34760.7 hPa Calm     96 % 0.0 in /  0 mm
23:42 2.6 °F /  -16.3 °C 2.0 °F /  -16.7 °C 1026.6 in /  34760.7 hPa Calm     96 % 0.0 in /  0 mm
23:52 2.4 °F /  -16.4 °C 1.8 °F /  -16.8 °C 1026.6 in /  34760.7 hPa Calm     96 % 0.0 in /  0 mm
Meteo18
Compliments of Weather Underground - 4 mb

Script developed by  Jim McMurry - jmcmurry@mwt.net Adapted for the template by  Wim van der Kuil - Leuven-Template.eu

You find our weather info also at:

European Weather Network

Weather Underground

Equipment we use:

Weather-station
Davis Vue

Weather-program
Meteobridge

Weather-server
Raspberry PI 2 B+

Provider
1 and 1

Davis Vue

Meteobridge

Raspberry PI 2 B+

1 and 1